createdAt,value
2022-12-09T00:03:16.070Z,9.77
2022-12-09T00:08:09.537Z,12.50
2022-12-09T00:13:01.520Z,11.23
2022-12-09T00:17:53.114Z,8.00
2022-12-09T00:22:44.658Z,8.77
2022-12-09T00:27:36.251Z,9.27
2022-12-09T00:32:27.815Z,10.13
2022-12-09T00:37:20.686Z,9.13
2022-12-09T00:42:12.414Z,7.37
2022-12-09T00:47:04.292Z,8.87
2022-12-09T00:51:56.125Z,9.43
2022-12-09T00:56:47.725Z,7.60
2022-12-09T01:01:39.377Z,8.63
2022-12-09T01:06:31.501Z,6.40
2022-12-09T01:11:26.709Z,8.57
2022-12-09T01:16:19.799Z,8.07
2022-12-09T01:21:13.421Z,8.37
2022-12-09T01:26:06.694Z,8.17
2022-12-09T01:31:05.871Z,9.93
2022-12-09T01:35:57.442Z,9.33
2022-12-09T01:40:49.405Z,7.87
2022-12-09T01:45:42.308Z,8.70
2022-12-09T01:50:36.721Z,8.23
2022-12-09T01:55:29.335Z,10.80
2022-12-09T02:00:21.064Z,8.87
2022-12-09T02:05:15.318Z,10.20
2022-12-09T02:10:16.810Z,7.63
2022-12-09T02:15:46.953Z,8.90
2022-12-09T02:20:44.345Z,7.97
2022-12-09T02:25:52.006Z,9.53
2022-12-09T02:30:55.086Z,7.60
2022-12-09T02:35:56.754Z,8.13
2022-12-09T02:40:56.362Z,8.07
2022-12-09T02:45:50.562Z,7.73
2022-12-09T02:50:45.192Z,10.90
2022-12-09T02:55:38.472Z,7.07
2022-12-09T03:00:30.664Z,12.00
2022-12-09T03:05:34.271Z,10.30
2022-12-09T03:10:31.669Z,8.60
2022-12-09T03:15:27.745Z,10.77
2022-12-09T03:20:29.787Z,8.13
2022-12-09T03:25:29.779Z,8.10
2022-12-09T03:30:22.988Z,7.47
2022-12-09T03:35:21.943Z,8.80
2022-12-09T03:40:17.970Z,9.80
2022-12-09T03:45:12.257Z,8.13
2022-12-09T03:50:06.776Z,8.27
2022-12-09T03:55:05.128Z,8.70
2022-12-09T04:00:00.780Z,7.77
2022-12-09T04:04:52.668Z,8.77
2022-12-09T04:09:44.935Z,7.50
2022-12-09T04:14:37.097Z,8.67
2022-12-09T04:19:29.014Z,7.20
2022-12-09T04:24:20.881Z,7.97
2022-12-09T04:29:13.249Z,9.10
2022-12-09T04:34:09.230Z,7.40
2022-12-09T04:39:01.793Z,7.17
2022-12-09T04:43:53.641Z,8.93
2022-12-09T04:48:45.261Z,7.27
2022-12-09T04:53:38.142Z,9.47
2022-12-09T04:58:29.942Z,8.10
2022-12-09T05:03:22.538Z,9.70
2022-12-09T05:08:14.952Z,7.80
2022-12-09T05:13:07.160Z,8.13
2022-12-09T05:17:59.630Z,10.10
2022-12-09T05:22:51.972Z,8.07
2022-12-09T05:27:43.947Z,7.33
2022-12-09T05:32:35.589Z,8.30
2022-12-09T05:37:27.432Z,8.63
2022-12-09T05:42:19.041Z,8.17
2022-12-09T05:47:10.711Z,10.43
2022-12-09T05:52:02.692Z,8.63
2022-12-09T05:56:54.730Z,6.80
2022-12-09T06:01:46.395Z,7.77
2022-12-09T06:06:38.223Z,9.70
2022-12-09T06:11:32.348Z,11.23
2022-12-09T06:16:24.604Z,10.23
2022-12-09T06:21:18.404Z,9.57
2022-12-09T06:26:22.460Z,10.43
2022-12-09T06:31:14.975Z,9.53
2022-12-09T06:36:08.008Z,7.20
2022-12-09T06:41:00.007Z,10.93
2022-12-09T06:45:51.947Z,10.07
2022-12-09T06:50:43.548Z,11.40
2022-12-09T06:55:35.129Z,13.50
2022-12-09T07:00:26.845Z,11.17
2022-12-09T07:05:19.568Z,11.53
2022-12-09T07:10:11.776Z,11.53
2022-12-09T07:15:04.247Z,14.57
2022-12-09T07:19:59.053Z,16.30
2022-12-09T07:24:55.403Z,10.00
2022-12-09T07:29:47.259Z,13.37
2022-12-09T07:34:39.681Z,11.20
2022-12-09T07:39:31.705Z,14.13
2022-12-09T07:44:25.346Z,11.57
2022-12-09T07:49:17.467Z,12.23
2022-12-09T07:54:17.792Z,11.80
2022-12-09T07:59:11.019Z,11.97
2022-12-09T08:04:05.681Z,9.77
2022-12-09T08:09:00.028Z,10.73
2022-12-09T08:13:54.070Z,9.67
2022-12-09T08:18:47.183Z,12.60
2022-12-09T08:23:40.305Z,12.40
2022-12-09T08:28:32.374Z,11.53
2022-12-09T08:33:24.744Z,10.30
2022-12-09T08:38:17.384Z,11.10
2022-12-09T08:43:09.646Z,10.90
2022-12-09T08:48:01.455Z,10.93
2022-12-09T08:52:54.014Z,12.23
2022-12-09T08:57:45.856Z,11.90
2022-12-09T09:02:37.621Z,11.77
2022-12-09T09:07:31.066Z,12.80
2022-12-09T09:12:23.448Z,12.47
2022-12-09T09:17:15.401Z,13.77
2022-12-09T09:22:07.456Z,13.07
2022-12-09T09:26:59.059Z,12.07
2022-12-09T09:31:54.672Z,13.30
2022-12-09T09:36:47.597Z,11.77
2022-12-09T09:42:06.215Z,11.37
2022-12-09T09:47:02.978Z,12.27
2022-12-09T09:51:55.036Z,10.83
2022-12-09T09:57:05.242Z,11.90
2022-12-09T10:02:02.372Z,13.07
2022-12-09T10:07:20.111Z,12.50
2022-12-09T10:12:27.100Z,12.90
2022-12-09T10:17:25.112Z,12.30
2022-12-09T10:22:23.116Z,14.97
2022-12-09T10:27:30.568Z,12.23
2022-12-09T10:32:34.735Z,13.67
2022-12-09T10:37:36.130Z,13.47
2022-12-09T10:42:47.688Z,13.90
2022-12-09T10:47:40.284Z,17.43
2022-12-09T10:52:44.463Z,16.30
2022-12-09T10:57:36.271Z,13.33
2022-12-09T11:02:31.156Z,15.30
2022-12-09T11:07:26.039Z,16.10
2022-12-09T11:12:27.358Z,14.57
2022-12-09T11:17:25.341Z,14.50
2022-12-09T11:22:41.633Z,17.50
2022-12-09T11:27:35.025Z,16.73
2022-12-09T11:32:27.039Z,17.97
2022-12-09T11:37:18.757Z,14.13
2022-12-09T11:42:18.882Z,14.03
2022-12-09T11:53:11.615Z,15.77
2022-12-09T11:58:15.884Z,12.93
2022-12-09T12:03:22.036Z,15.00
2022-12-09T12:08:25.946Z,17.50
2022-12-09T12:13:23.949Z,17.37
2022-12-09T12:18:22.053Z,16.30
2022-12-09T12:23:39.651Z,16.00
2022-12-09T12:28:56.679Z,18.17
2022-12-09T12:34:28.262Z,17.13
2022-12-09T12:39:35.297Z,16.23
2022-12-09T12:45:12.811Z,15.67
2022-12-09T12:50:04.601Z,17.93
2022-12-09T12:54:56.382Z,16.37
2022-12-09T13:00:01.328Z,18.07
2022-12-09T13:05:00.533Z,17.13
2022-12-09T13:10:14.951Z,17.27
2022-12-09T13:15:12.529Z,15.97
2022-12-09T13:20:05.245Z,18.53
2022-12-09T13:25:21.067Z,15.57
2022-12-09T13:30:22.272Z,15.83
2022-12-09T13:35:37.301Z,15.87
2022-12-09T13:40:37.677Z,20.17
2022-12-09T13:45:46.360Z,21.20
2022-12-09T13:50:44.456Z,17.83
2022-12-09T13:55:56.244Z,18.10
2022-12-09T14:01:04.908Z,17.43
2022-12-09T14:06:01.219Z,17.97
2022-12-09T14:10:54.018Z,21.13
2022-12-09T14:15:48.450Z,17.10
2022-12-09T14:20:40.226Z,19.83
2022-12-09T14:25:35.019Z,18.50
2022-12-09T14:30:48.632Z,19.73
2022-12-09T14:35:54.081Z,18.83
2022-12-09T14:40:57.816Z,20.03
2022-12-09T14:46:04.952Z,19.03
2022-12-09T14:51:21.357Z,21.33
2022-12-09T14:56:21.386Z,18.80
2022-12-09T15:01:13.024Z,22.50
2022-12-09T15:06:12.055Z,20.17
2022-12-09T15:11:29.021Z,18.77
2022-12-09T15:16:24.555Z,20.23
2022-12-09T15:21:46.091Z,22.83
2022-12-09T15:26:37.735Z,22.23
2022-12-09T15:31:31.925Z,22.77
2022-12-09T15:36:35.329Z,18.23
2022-12-09T15:41:51.565Z,18.73
2022-12-09T15:46:46.764Z,21.53
2022-12-09T15:51:42.146Z,21.10
2022-12-09T15:56:43.925Z,23.60
2022-12-09T16:01:36.170Z,24.07
2022-12-09T16:06:31.748Z,24.33
2022-12-09T16:11:41.541Z,25.00
2022-12-09T16:17:01.398Z,21.47
2022-12-09T16:21:56.278Z,26.40
2022-12-09T16:26:50.151Z,21.97
2022-12-09T16:31:42.250Z,24.63
2022-12-09T16:36:33.955Z,25.20
2022-12-09T16:42:03.397Z,22.07
2022-12-09T16:47:17.010Z,27.67
2022-12-09T16:52:13.803Z,22.97
2022-12-09T16:57:05.563Z,23.30
2022-12-09T17:01:57.139Z,21.53
2022-12-09T17:06:48.961Z,24.03
2022-12-09T17:11:44.116Z,22.23
2022-12-09T17:16:40.116Z,28.10
2022-12-09T17:21:31.846Z,23.33
2022-12-09T17:26:23.477Z,23.60
2022-12-09T17:31:18.058Z,26.10
2022-12-09T17:36:11.151Z,29.33
2022-12-09T17:41:11.282Z,28.33
2022-12-09T17:46:04.640Z,26.03
2022-12-09T17:50:56.684Z,28.27
2022-12-09T17:55:48.456Z,24.63
2022-12-09T18:00:41.468Z,28.30
2022-12-09T18:05:38.133Z,26.83
2022-12-09T18:10:29.814Z,26.13
2022-12-09T18:15:21.432Z,32.07
2022-12-09T18:20:13.266Z,24.50
2022-12-09T18:25:05.633Z,23.63
2022-12-09T18:29:57.161Z,25.97
2022-12-09T18:34:49.222Z,24.97
2022-12-09T18:39:40.929Z,28.63
2022-12-09T18:44:32.522Z,31.13
2022-12-09T18:49:26.932Z,26.93
2022-12-09T18:54:23.318Z,26.73
2022-12-09T18:59:14.974Z,24.13
2022-12-09T19:04:08.568Z,25.47
2022-12-09T19:09:02.673Z,32.77
2022-12-09T19:13:55.121Z,30.90
2022-12-09T19:18:47.335Z,26.50
2022-12-09T19:23:40.299Z,23.23
2022-12-09T19:28:31.895Z,25.77
2022-12-09T19:33:23.390Z,26.23
2022-12-09T19:38:14.945Z,29.17
2022-12-09T19:43:07.251Z,25.13
2022-12-09T19:47:58.834Z,24.27
2022-12-09T19:52:50.378Z,28.13
2022-12-09T19:57:42.053Z,25.40
2022-12-09T20:02:36.229Z,27.07
2022-12-09T20:07:27.854Z,26.30
2022-12-09T20:12:19.374Z,27.90
2022-12-09T20:17:10.940Z,30.30
2022-12-09T20:22:02.796Z,30.63
2022-12-09T20:26:55.932Z,30.53
2022-12-09T20:31:47.446Z,30.07
2022-12-09T20:36:40.927Z,29.23
2022-12-09T20:41:32.415Z,27.70
2022-12-09T20:46:26.717Z,28.43
2022-12-09T20:51:21.770Z,30.53
2022-12-09T20:56:14.662Z,25.93
2022-12-09T21:01:08.763Z,29.10
2022-12-09T21:06:00.452Z,27.63
2022-12-09T21:10:52.270Z,26.83
2022-12-09T21:15:43.814Z,25.73
2022-12-09T21:20:41.467Z,23.13
2022-12-09T21:25:35.583Z,26.43
2022-12-09T21:30:27.327Z,25.07
2022-12-09T21:35:18.871Z,27.97
2022-12-09T21:40:11.216Z,26.57
2022-12-09T21:45:03.003Z,28.10
2022-12-09T21:49:54.532Z,27.13
2022-12-09T21:54:53.724Z,26.30
2022-12-09T21:59:47.093Z,26.00
2022-12-09T22:04:38.692Z,25.83
2022-12-09T22:09:30.217Z,26.30
2022-12-09T22:14:21.767Z,26.73
2022-12-09T22:19:17.141Z,27.73
2022-12-09T22:24:11.691Z,26.77
2022-12-09T22:29:04.955Z,27.73
2022-12-09T22:34:00.572Z,27.07
2022-12-09T22:39:19.784Z,26.07
2022-12-09T22:44:13.429Z,25.97
2022-12-09T22:49:06.265Z,25.80
2022-12-09T22:53:58.941Z,25.23
2022-12-09T22:58:50.964Z,24.57
2022-12-09T23:03:42.903Z,26.97
2022-12-09T23:08:35.300Z,24.70
2022-12-09T23:13:26.829Z,28.30
2022-12-09T23:18:18.474Z,22.03
